createdAt,value
2023-04-05T00:08:50.273Z,98096.81
2023-04-05T00:18:52.752Z,98104.13
2023-04-05T00:28:55.069Z,98101.56
2023-04-05T00:38:57.470Z,98102.09
2023-04-05T00:48:59.898Z,98095.28
2023-04-05T00:59:02.484Z,98088.41
2023-04-05T01:09:26.212Z,98083.81
2023-04-05T01:19:30.290Z,98078.50
2023-04-05T01:29:50.902Z,98071.19
2023-04-05T01:39:53.489Z,98069.19
2023-04-05T01:49:55.875Z,98049.81
2023-04-05T01:59:58.336Z,98037.63
2023-04-05T02:10:00.676Z,98037.06
2023-04-05T02:20:03.140Z,98032.25
2023-04-05T02:30:06.302Z,98020.25
2023-04-05T02:40:12.048Z,98010.84
2023-04-05T02:50:15.136Z,98009.47
2023-04-05T03:00:17.950Z,98008.09
2023-04-05T03:10:26.742Z,97997.84
2023-04-05T03:20:28.934Z,97995.19
2023-04-05T03:30:34.651Z,98002.59
2023-04-05T03:40:37.018Z,97994.50
2023-04-05T03:50:39.553Z,98002.13
2023-04-05T04:00:42.151Z,97982.34
2023-04-05T04:10:44.577Z,97983.78
2023-04-05T04:20:48.200Z,97983.81
2023-04-05T04:30:50.521Z,97974.25
2023-04-05T04:40:54.181Z,97978.00
2023-04-05T04:50:57.718Z,97985.50
2023-04-05T05:01:00.565Z,97977.97
2023-04-05T05:11:06.735Z,97989.06
2023-04-05T05:21:09.103Z,98003.94
2023-04-05T05:31:12.603Z,98019.63
2023-04-05T05:41:15.346Z,98021.25
2023-04-05T05:51:18.671Z,98023.97
2023-04-05T06:01:23.540Z,98019.19
2023-04-05T06:11:27.081Z,98032.13
2023-04-05T06:21:29.573Z,98043.75
2023-04-05T06:31:34.069Z,98056.47
2023-04-05T06:41:36.664Z,98060.53
2023-04-05T06:51:39.261Z,98048.56
2023-04-05T07:01:42.691Z,98048.09
2023-04-05T07:11:46.120Z,98048.13
2023-04-05T07:21:49.682Z,98056.03
2023-04-05T07:31:52.306Z,98064.81
2023-04-05T07:41:54.905Z,98066.31
2023-04-05T07:51:58.226Z,98070.00
2023-04-05T08:02:05.017Z,98067.69
2023-04-05T08:12:15.345Z,98072.84
2023-04-05T08:22:19.294Z,98070.97
2023-04-05T08:32:22.087Z,98060.62
2023-04-05T08:42:33.279Z,98072.19
2023-04-05T08:52:38.850Z,98069.53
2023-04-05T09:02:45.805Z,98080.41
2023-04-05T09:12:48.534Z,98071.56
2023-04-05T09:22:51.454Z,98073.81
2023-04-05T09:32:55.884Z,98073.37
2023-04-05T09:42:58.608Z,98070.81
2023-04-05T09:53:11.006Z,98072.34
2023-04-05T10:03:13.649Z,98077.06
2023-04-05T10:13:17.719Z,98067.75
2023-04-05T10:23:28.618Z,98065.41
2023-04-05T10:33:46.451Z,98066.38
2023-04-05T10:43:52.420Z,98064.16
2023-04-05T10:53:56.898Z,98056.50
2023-04-05T11:04:13.404Z,98057.34
2023-04-05T11:14:26.959Z,98047.34
2023-04-05T11:24:53.826Z,98056.94
2023-04-05T11:35:06.912Z,98047.28
2023-04-05T11:45:10.485Z,98041.03
2023-04-05T11:55:13.047Z,98039.28
2023-04-05T12:05:15.775Z,98030.31
2023-04-05T12:15:19.478Z,98019.66
2023-04-05T12:25:22.786Z,98008.25
2023-04-05T12:35:33.321Z,98006.44
2023-04-05T12:45:44.225Z,98002.19
2023-04-05T12:55:57.892Z,97994.94
2023-04-05T13:06:00.505Z,97985.47
2023-04-05T13:16:03.024Z,97984.00
2023-04-05T13:26:06.492Z,97971.84
2023-04-05T13:36:09.752Z,97967.50
2023-04-05T13:46:12.350Z,97962.53
2023-04-05T13:56:15.194Z,97954.84
2023-04-05T14:06:18.156Z,97950.94
2023-04-05T14:16:20.686Z,97944.19
2023-04-05T14:26:26.578Z,97927.06
2023-04-05T14:36:29.361Z,97923.94
2023-04-05T14:46:32.013Z,97911.91
2023-04-05T14:56:34.723Z,97904.53
2023-04-05T15:06:38.111Z,97896.59
2023-04-05T15:16:40.669Z,97885.88
2023-04-05T15:26:43.277Z,97879.38
2023-04-05T15:36:46.610Z,97872.69
2023-04-05T15:46:49.585Z,97872.59
2023-04-05T15:56:52.248Z,97873.94
2023-04-05T16:06:55.726Z,97871.09
2023-04-05T16:16:58.481Z,97868.44
2023-04-05T16:27:01.157Z,97865.63
2023-04-05T16:37:03.794Z,97866.31
2023-04-05T16:47:06.994Z,97863.25
2023-04-05T16:57:09.407Z,97848.66
2023-04-05T17:07:12.035Z,97862.66
2023-04-05T17:17:14.752Z,97872.34
2023-04-05T17:27:17.315Z,97858.16
2023-04-05T17:37:19.983Z,97860.66
2023-04-05T17:47:22.483Z,97854.66
2023-04-05T17:57:25.153Z,97858.75
2023-04-05T18:07:27.858Z,97861.53
2023-04-05T18:17:30.397Z,97859.00
2023-04-05T18:27:33.616Z,97865.09
2023-04-05T18:37:36.926Z,97867.47
2023-04-05T18:47:39.704Z,97878.34
2023-04-05T18:57:42.368Z,97884.69
2023-04-05T19:07:45.196Z,97901.78
2023-04-05T19:17:47.856Z,97910.94
2023-04-05T19:27:50.964Z,97906.19
2023-04-05T19:37:53.844Z,97910.00
2023-04-05T19:47:58.358Z,97915.44
2023-04-05T19:58:03.370Z,97923.69
2023-04-05T20:08:08.631Z,97926.38
2023-04-05T20:18:15.350Z,97929.94
2023-04-05T20:28:34.633Z,97932.00
2023-04-05T20:38:41.500Z,97917.03
2023-04-05T20:48:45.037Z,97921.94
2023-04-05T20:58:47.660Z,97920.47
2023-04-05T21:08:50.353Z,97921.84
2023-04-05T21:18:53.332Z,97924.44
2023-04-05T21:28:56.150Z,97928.66
2023-04-05T21:38:58.718Z,97932.91
2023-04-05T21:49:01.206Z,97932.41
2023-04-05T21:59:04.246Z,97932.12
2023-04-05T22:09:07.644Z,97930.44
2023-04-05T22:19:13.822Z,97934.00
2023-04-05T22:29:17.208Z,97937.38
2023-04-05T22:39:19.593Z,97943.37
2023-04-05T22:49:22.594Z,97938.41
2023-04-05T22:59:25.169Z,97944.44
2023-04-05T23:09:27.804Z,97942.91
2023-04-05T23:19:30.133Z,97940.56
2023-04-05T23:29:32.418Z,97935.56
2023-04-05T23:39:34.955Z,97935.69
2023-04-05T23:49:37.431Z,97942.13
2023-04-05T23:59:40.346Z,97927.97
